sensor_id;sensor_type;location;lat;lon;timestamp;P1;durP1;ratioP1;P2;durP2;ratioP2
10430;SDS011;5262;59.958;17.726;2022-11-30T00:01:11;9.07;;;5.87;;
10430;SDS011;5262;59.958;17.726;2022-11-30T00:03:39;8.30;;;5.47;;
10430;SDS011;5262;59.958;17.726;2022-11-30T00:06:05;11.10;;;6.10;;
10430;SDS011;5262;59.958;17.726;2022-11-30T00:08:33;10.27;;;5.07;;
10430;SDS011;5262;59.958;17.726;2022-11-30T00:10:59;8.63;;;5.50;;
10430;SDS011;5262;59.958;17.726;2022-11-30T00:13:24;7.80;;;4.63;;
10430;SDS011;5262;59.958;17.726;2022-11-30T00:15:50;10.10;;;5.93;;
10430;SDS011;5262;59.958;17.726;2022-11-30T00:18:16;10.40;;;6.10;;
10430;SDS011;5262;59.958;17.726;2022-11-30T00:20:42;11.97;;;5.60;;
10430;SDS011;5262;59.958;17.726;2022-11-30T00:23:08;8.13;;;5.53;;
10430;SDS011;5262;59.958;17.726;2022-11-30T00:25:34;11.17;;;6.30;;
10430;SDS011;5262;59.958;17.726;2022-11-30T00:28:01;9.60;;;5.77;;
10430;SDS011;5262;59.958;17.726;2022-11-30T00:30:27;10.57;;;6.07;;
10430;SDS011;5262;59.958;17.726;2022-11-30T00:32:56;9.90;;;5.30;;
10430;SDS011;5262;59.958;17.726;2022-11-30T00:35:22;11.07;;;5.87;;
10430;SDS011;5262;59.958;17.726;2022-11-30T00:37:48;10.90;;;5.63;;
10430;SDS011;5262;59.958;17.726;2022-11-30T00:40:14;10.77;;;6.63;;
10430;SDS011;5262;59.958;17.726;2022-11-30T00:42:40;11.43;;;6.57;;
10430;SDS011;5262;59.958;17.726;2022-11-30T00:45:06;10.40;;;6.07;;
10430;SDS011;5262;59.958;17.726;2022-11-30T00:47:32;9.23;;;5.97;;
10430;SDS011;5262;59.958;17.726;2022-11-30T00:49:58;11.60;;;6.57;;
10430;SDS011;5262;59.958;17.726;2022-11-30T00:52:23;11.90;;;6.90;;
10430;SDS011;5262;59.958;17.726;2022-11-30T00:54:49;11.63;;;6.80;;
10430;SDS011;5262;59.958;17.726;2022-11-30T00:57:15;12.13;;;6.60;;
10430;SDS011;5262;59.958;17.726;2022-11-30T00:59:40;10.13;;;6.57;;
10430;SDS011;5262;59.958;17.726;2022-11-30T01:02:06;10.13;;;5.87;;
10430;SDS011;5262;59.958;17.726;2022-11-30T01:04:32;12.03;;;6.70;;
10430;SDS011;5262;59.958;17.726;2022-11-30T01:06:58;12.70;;;6.80;;
10430;SDS011;5262;59.958;17.726;2022-11-30T01:09:23;9.83;;;6.43;;
10430;SDS011;5262;59.958;17.726;2022-11-30T01:11:49;9.97;;;6.33;;
10430;SDS011;5262;59.958;17.726;2022-11-30T01:14:15;12.10;;;6.43;;
10430;SDS011;5262;59.958;17.726;2022-11-30T01:16:40;10.60;;;7.10;;
10430;SDS011;5262;59.958;17.726;2022-11-30T01:19:07;11.83;;;6.60;;
10430;SDS011;5262;59.958;17.726;2022-11-30T01:21:33;10.13;;;6.07;;
10430;SDS011;5262;59.958;17.726;2022-11-30T01:23:58;12.00;;;7.27;;
10430;SDS011;5262;59.958;17.726;2022-11-30T01:26:24;12.00;;;7.13;;
10430;SDS011;5262;59.958;17.726;2022-11-30T01:28:50;12.33;;;6.93;;
10430;SDS011;5262;59.958;17.726;2022-11-30T01:31:17;11.17;;;6.23;;
10430;SDS011;5262;59.958;17.726;2022-11-30T01:33:47;10.17;;;6.47;;
10430;SDS011;5262;59.958;17.726;2022-11-30T01:36:21;11.90;;;6.67;;
10430;SDS011;5262;59.958;17.726;2022-11-30T01:38:50;11.37;;;6.20;;
10430;SDS011;5262;59.958;17.726;2022-11-30T01:41:19;10.90;;;6.53;;
10430;SDS011;5262;59.958;17.726;2022-11-30T01:43:56;10.23;;;5.30;;
10430;SDS011;5262;59.958;17.726;2022-11-30T01:49:40;6.73;;;4.67;;
10430;SDS011;5262;59.958;17.726;2022-11-30T01:52:19;8.90;;;5.17;;
10430;SDS011;5262;59.958;17.726;2022-11-30T02:00:21;7.47;;;4.30;;
10430;SDS011;5262;59.958;17.726;2022-11-30T02:02:55;7.33;;;4.93;;
10430;SDS011;5262;59.958;17.726;2022-11-30T02:05:28;7.20;;;4.87;;
10430;SDS011;5262;59.958;17.726;2022-11-30T02:07:55;9.13;;;4.47;;
10430;SDS011;5262;59.958;17.726;2022-11-30T02:10:26;7.63;;;5.00;;
10430;SDS011;5262;59.958;17.726;2022-11-30T02:21:37;7.53;;;4.23;;
10430;SDS011;5262;59.958;17.726;2022-11-30T02:32:24;7.20;;;4.53;;
10430;SDS011;5262;59.958;17.726;2022-11-30T02:34:53;10.70;;;4.90;;
10430;SDS011;5262;59.958;17.726;2022-11-30T02:37:22;6.37;;;4.63;;
10430;SDS011;5262;59.958;17.726;2022-11-30T02:39:49;9.07;;;4.47;;
10430;SDS011;5262;59.958;17.726;2022-11-30T02:42:15;6.90;;;4.73;;
10430;SDS011;5262;59.958;17.726;2022-11-30T02:44:42;7.67;;;4.60;;
10430;SDS011;5262;59.958;17.726;2022-11-30T02:47:14;8.57;;;4.80;;
10430;SDS011;5262;59.958;17.726;2022-11-30T02:49:55;6.60;;;4.23;;
10430;SDS011;5262;59.958;17.726;2022-11-30T02:52:26;5.33;;;3.70;;
10430;SDS011;5262;59.958;17.726;2022-11-30T02:54:57;7.87;;;4.90;;
10430;SDS011;5262;59.958;17.726;2022-11-30T02:57:33;7.87;;;4.40;;
10430;SDS011;5262;59.958;17.726;2022-11-30T03:00:00;7.40;;;4.00;;
10430;SDS011;5262;59.958;17.726;2022-11-30T03:02:28;5.23;;;3.90;;
10430;SDS011;5262;59.958;17.726;2022-11-30T03:04:54;7.57;;;4.10;;
10430;SDS011;5262;59.958;17.726;2022-11-30T03:07:19;5.50;;;4.10;;
10430;SDS011;5262;59.958;17.726;2022-11-30T03:09:45;4.90;;;3.80;;
10430;SDS011;5262;59.958;17.726;2022-11-30T03:12:10;7.23;;;4.47;;
10430;SDS011;5262;59.958;17.726;2022-11-30T03:14:36;8.17;;;4.50;;
10430;SDS011;5262;59.958;17.726;2022-11-30T03:17:02;6.70;;;4.53;;
10430;SDS011;5262;59.958;17.726;2022-11-30T03:19:28;8.37;;;4.73;;
10430;SDS011;5262;59.958;17.726;2022-11-30T03:21:53;8.20;;;5.03;;
10430;SDS011;5262;59.958;17.726;2022-11-30T03:24:19;8.47;;;4.30;;
10430;SDS011;5262;59.958;17.726;2022-11-30T03:26:45;6.00;;;4.07;;
10430;SDS011;5262;59.958;17.726;2022-11-30T03:29:10;5.97;;;4.57;;
10430;SDS011;5262;59.958;17.726;2022-11-30T03:31:36;5.90;;;4.10;;
10430;SDS011;5262;59.958;17.726;2022-11-30T03:34:02;5.20;;;3.70;;
10430;SDS011;5262;59.958;17.726;2022-11-30T03:36:27;5.80;;;3.90;;
10430;SDS011;5262;59.958;17.726;2022-11-30T03:38:53;6.80;;;3.90;;
10430;SDS011;5262;59.958;17.726;2022-11-30T03:41:19;8.03;;;3.73;;
10430;SDS011;5262;59.958;17.726;2022-11-30T03:43:45;4.50;;;3.40;;
10430;SDS011;5262;59.958;17.726;2022-11-30T03:46:11;6.87;;;3.63;;
10430;SDS011;5262;59.958;17.726;2022-11-30T03:48:37;4.27;;;3.23;;
10430;SDS011;5262;59.958;17.726;2022-11-30T03:51:05;6.10;;;3.20;;
10430;SDS011;5262;59.958;17.726;2022-11-30T03:53:32;5.07;;;3.40;;
10430;SDS011;5262;59.958;17.726;2022-11-30T03:56:00;5.73;;;3.57;;
10430;SDS011;5262;59.958;17.726;2022-11-30T03:58:27;6.00;;;3.73;;
10430;SDS011;5262;59.958;17.726;2022-11-30T04:01:06;4.57;;;3.27;;
10430;SDS011;5262;59.958;17.726;2022-11-30T04:03:37;6.87;;;3.63;;
10430;SDS011;5262;59.958;17.726;2022-11-30T04:06:04;4.23;;;3.07;;
10430;SDS011;5262;59.958;17.726;2022-11-30T04:08:30;6.03;;;3.57;;
10430;SDS011;5262;59.958;17.726;2022-11-30T04:10:57;5.33;;;3.77;;
10430;SDS011;5262;59.958;17.726;2022-11-30T04:13:24;5.30;;;3.00;;
10430;SDS011;5262;59.958;17.726;2022-11-30T04:15:50;4.07;;;3.30;;
10430;SDS011;5262;59.958;17.726;2022-11-30T04:18:17;4.50;;;3.37;;
10430;SDS011;5262;59.958;17.726;2022-11-30T04:20:43;4.50;;;3.20;;
10430;SDS011;5262;59.958;17.726;2022-11-30T04:23:10;5.27;;;3.40;;
10430;SDS011;5262;59.958;17.726;2022-11-30T04:25:40;4.40;;;3.20;;
10430;SDS011;5262;59.958;17.726;2022-11-30T04:28:06;5.53;;;3.70;;
10430;SDS011;5262;59.958;17.726;2022-11-30T04:30:33;4.43;;;3.20;;
10430;SDS011;5262;59.958;17.726;2022-11-30T04:32:59;6.23;;;3.73;;
10430;SDS011;5262;59.958;17.726;2022-11-30T04:35:25;4.83;;;3.37;;
10430;SDS011;5262;59.958;17.726;2022-11-30T04:37:51;5.63;;;3.20;;
10430;SDS011;5262;59.958;17.726;2022-11-30T04:40:17;6.33;;;3.37;;
10430;SDS011;5262;59.958;17.726;2022-11-30T04:42:43;4.90;;;3.57;;
10430;SDS011;5262;59.958;17.726;2022-11-30T04:45:08;6.20;;;3.60;;
10430;SDS011;5262;59.958;17.726;2022-11-30T04:47:34;7.80;;;3.90;;
10430;SDS011;5262;59.958;17.726;2022-11-30T04:50:00;4.43;;;3.53;;
10430;SDS011;5262;59.958;17.726;2022-11-30T04:52:26;6.40;;;3.93;;
10430;SDS011;5262;59.958;17.726;2022-11-30T04:54:51;4.20;;;3.23;;
10430;SDS011;5262;59.958;17.726;2022-11-30T04:57:17;7.30;;;4.27;;
10430;SDS011;5262;59.958;17.726;2022-11-30T04:59:43;4.93;;;3.40;;
10430;SDS011;5262;59.958;17.726;2022-11-30T05:02:09;6.63;;;4.70;;
10430;SDS011;5262;59.958;17.726;2022-11-30T05:04:34;6.17;;;3.67;;
10430;SDS011;5262;59.958;17.726;2022-11-30T05:07:00;5.10;;;3.63;;
10430;SDS011;5262;59.958;17.726;2022-11-30T05:09:26;8.07;;;3.47;;
10430;SDS011;5262;59.958;17.726;2022-11-30T05:11:51;4.57;;;3.90;;
10430;SDS011;5262;59.958;17.726;2022-11-30T05:14:17;5.70;;;4.07;;
10430;SDS011;5262;59.958;17.726;2022-11-30T05:16:45;9.33;;;3.77;;
10430;SDS011;5262;59.958;17.726;2022-11-30T05:19:12;4.53;;;3.50;;
10430;SDS011;5262;59.958;17.726;2022-11-30T05:21:38;5.80;;;3.70;;
10430;SDS011;5262;59.958;17.726;2022-11-30T05:24:04;6.10;;;3.90;;
10430;SDS011;5262;59.958;17.726;2022-11-30T05:26:30;7.70;;;3.57;;
10430;SDS011;5262;59.958;17.726;2022-11-30T05:28:56;9.60;;;3.47;;
10430;SDS011;5262;59.958;17.726;2022-11-30T05:31:22;4.47;;;3.70;;
10430;SDS011;5262;59.958;17.726;2022-11-30T05:33:49;4.97;;;3.83;;
10430;SDS011;5262;59.958;17.726;2022-11-30T05:36:17;4.77;;;3.83;;
10430;SDS011;5262;59.958;17.726;2022-11-30T05:38:43;4.07;;;3.23;;
10430;SDS011;5262;59.958;17.726;2022-11-30T05:41:09;6.17;;;4.07;;
10430;SDS011;5262;59.958;17.726;2022-11-30T05:43:35;5.13;;;3.27;;
10430;SDS011;5262;59.958;17.726;2022-11-30T05:46:01;5.27;;;3.50;;
10430;SDS011;5262;59.958;17.726;2022-11-30T05:48:29;5.37;;;3.67;;
10430;SDS011;5262;59.958;17.726;2022-11-30T05:50:55;4.70;;;3.67;;
10430;SDS011;5262;59.958;17.726;2022-11-30T05:53:28;5.30;;;3.63;;
10430;SDS011;5262;59.958;17.726;2022-11-30T05:55:53;5.73;;;3.70;;
10430;SDS011;5262;59.958;17.726;2022-11-30T05:58:19;5.10;;;3.40;;
10430;SDS011;5262;59.958;17.726;2022-11-30T06:00:45;6.83;;;3.73;;
10430;SDS011;5262;59.958;17.726;2022-11-30T06:03:10;5.67;;;3.80;;
10430;SDS011;5262;59.958;17.726;2022-11-30T06:05:36;4.87;;;3.23;;
10430;SDS011;5262;59.958;17.726;2022-11-30T06:08:02;4.33;;;3.27;;
10430;SDS011;5262;59.958;17.726;2022-11-30T06:10:27;5.23;;;3.60;;
10430;SDS011;5262;59.958;17.726;2022-11-30T06:12:53;5.03;;;3.30;;
10430;SDS011;5262;59.958;17.726;2022-11-30T06:15:19;5.20;;;3.60;;
10430;SDS011;5262;59.958;17.726;2022-11-30T06:17:44;6.43;;;3.40;;
10430;SDS011;5262;59.958;17.726;2022-11-30T06:20:10;5.90;;;3.80;;
10430;SDS011;5262;59.958;17.726;2022-11-30T06:22:36;5.40;;;3.30;;
10430;SDS011;5262;59.958;17.726;2022-11-30T06:25:01;7.97;;;4.13;;
10430;SDS011;5262;59.958;17.726;2022-11-30T06:27:29;6.90;;;3.70;;
10430;SDS011;5262;59.958;17.726;2022-11-30T06:29:55;5.07;;;3.50;;
10430;SDS011;5262;59.958;17.726;2022-11-30T06:32:21;6.40;;;3.93;;
10430;SDS011;5262;59.958;17.726;2022-11-30T06:34:47;7.17;;;4.20;;
10430;SDS011;5262;59.958;17.726;2022-11-30T06:37:12;5.27;;;3.13;;
10430;SDS011;5262;59.958;17.726;2022-11-30T06:39:38;5.53;;;3.63;;
10430;SDS011;5262;59.958;17.726;2022-11-30T06:42:04;7.20;;;3.17;;
10430;SDS011;5262;59.958;17.726;2022-11-30T06:44:29;8.73;;;3.50;;
10430;SDS011;5262;59.958;17.726;2022-11-30T06:46:55;7.17;;;3.63;;
10430;SDS011;5262;59.958;17.726;2022-11-30T06:49:21;6.33;;;3.57;;
10430;SDS011;5262;59.958;17.726;2022-11-30T06:51:46;5.07;;;4.20;;
10430;SDS011;5262;59.958;17.726;2022-11-30T06:54:12;6.83;;;4.00;;
10430;SDS011;5262;59.958;17.726;2022-11-30T06:56:37;5.57;;;3.93;;
10430;SDS011;5262;59.958;17.726;2022-11-30T06:59:03;5.50;;;3.60;;
10430;SDS011;5262;59.958;17.726;2022-11-30T07:01:29;7.27;;;4.10;;
10430;SDS011;5262;59.958;17.726;2022-11-30T07:03:54;5.70;;;4.40;;
10430;SDS011;5262;59.958;17.726;2022-11-30T07:06:20;7.23;;;4.50;;
10430;SDS011;5262;59.958;17.726;2022-11-30T07:08:46;7.07;;;4.43;;
10430;SDS011;5262;59.958;17.726;2022-11-30T07:11:11;7.23;;;4.53;;
10430;SDS011;5262;59.958;17.726;2022-11-30T07:13:37;6.60;;;4.63;;
10430;SDS011;5262;59.958;17.726;2022-11-30T07:16:03;6.10;;;3.50;;
10430;SDS011;5262;59.958;17.726;2022-11-30T07:18:30;7.90;;;4.17;;
10430;SDS011;5262;59.958;17.726;2022-11-30T07:21:00;6.50;;;4.67;;
10430;SDS011;5262;59.958;17.726;2022-11-30T07:23:27;5.90;;;4.10;;
10430;SDS011;5262;59.958;17.726;2022-11-30T07:26:12;7.80;;;4.60;;
10430;SDS011;5262;59.958;17.726;2022-11-30T07:28:39;6.30;;;4.10;;
10430;SDS011;5262;59.958;17.726;2022-11-30T07:31:39;6.00;;;3.97;;
10430;SDS011;5262;59.958;17.726;2022-11-30T07:34:02;8.33;;;4.10;;
10430;SDS011;5262;59.958;17.726;2022-11-30T07:36:29;13.57;;;4.53;;
10430;SDS011;5262;59.958;17.726;2022-11-30T07:38:56;6.03;;;3.90;;
10430;SDS011;5262;59.958;17.726;2022-11-30T07:41:22;10.00;;;4.17;;
10430;SDS011;5262;59.958;17.726;2022-11-30T07:43:48;7.30;;;4.40;;
10430;SDS011;5262;59.958;17.726;2022-11-30T07:46:14;5.57;;;4.20;;
10430;SDS011;5262;59.958;17.726;2022-11-30T07:48:41;8.87;;;4.07;;
10430;SDS011;5262;59.958;17.726;2022-11-30T07:51:09;6.83;;;4.47;;
10430;SDS011;5262;59.958;17.726;2022-11-30T07:53:41;5.47;;;3.70;;
10430;SDS011;5262;59.958;17.726;2022-11-30T07:56:08;9.30;;;3.87;;
10430;SDS011;5262;59.958;17.726;2022-11-30T07:58:35;6.53;;;4.17;;
10430;SDS011;5262;59.958;17.726;2022-11-30T08:01:08;4.97;;;4.03;;
10430;SDS011;5262;59.958;17.726;2022-11-30T08:03:36;7.07;;;4.27;;
10430;SDS011;5262;59.958;17.726;2022-11-30T08:06:03;5.90;;;3.90;;
10430;SDS011;5262;59.958;17.726;2022-11-30T08:08:32;5.47;;;4.00;;
10430;SDS011;5262;59.958;17.726;2022-11-30T08:10:59;5.30;;;3.90;;
10430;SDS011;5262;59.958;17.726;2022-11-30T08:13:25;8.27;;;4.70;;
10430;SDS011;5262;59.958;17.726;2022-11-30T08:15:51;6.30;;;4.50;;
10430;SDS011;5262;59.958;17.726;2022-11-30T08:18:17;6.43;;;4.50;;
10430;SDS011;5262;59.958;17.726;2022-11-30T08:20:43;6.40;;;4.40;;
10430;SDS011;5262;59.958;17.726;2022-11-30T08:23:09;5.73;;;4.17;;
10430;SDS011;5262;59.958;17.726;2022-11-30T08:25:35;7.03;;;4.10;;
10430;SDS011;5262;59.958;17.726;2022-11-30T08:28:01;6.13;;;4.30;;
10430;SDS011;5262;59.958;17.726;2022-11-30T08:30:27;6.13;;;4.40;;
10430;SDS011;5262;59.958;17.726;2022-11-30T08:32:52;6.10;;;4.43;;
10430;SDS011;5262;59.958;17.726;2022-11-30T08:35:18;4.40;;;3.87;;
10430;SDS011;5262;59.958;17.726;2022-11-30T08:37:44;6.10;;;4.37;;
10430;SDS011;5262;59.958;17.726;2022-11-30T08:40:09;7.67;;;4.37;;
10430;SDS011;5262;59.958;17.726;2022-11-30T08:42:35;5.70;;;4.23;;
10430;SDS011;5262;59.958;17.726;2022-11-30T08:45:01;5.77;;;4.50;;
10430;SDS011;5262;59.958;17.726;2022-11-30T08:47:27;5.93;;;4.00;;
10430;SDS011;5262;59.958;17.726;2022-11-30T08:49:54;6.83;;;4.20;;
10430;SDS011;5262;59.958;17.726;2022-11-30T08:52:20;6.93;;;4.40;;
10430;SDS011;5262;59.958;17.726;2022-11-30T08:54:46;5.53;;;4.10;;
10430;SDS011;5262;59.958;17.726;2022-11-30T08:57:16;5.97;;;4.67;;
10430;SDS011;5262;59.958;17.726;2022-11-30T08:59:43;5.87;;;4.07;;
10430;SDS011;5262;59.958;17.726;2022-11-30T09:02:13;5.70;;;4.00;;
10430;SDS011;5262;59.958;17.726;2022-11-30T09:04:41;6.40;;;4.27;;
10430;SDS011;5262;59.958;17.726;2022-11-30T09:07:07;5.30;;;4.23;;
10430;SDS011;5262;59.958;17.726;2022-11-30T09:09:33;5.10;;;4.10;;
10430;SDS011;5262;59.958;17.726;2022-11-30T09:12:00;5.03;;;3.70;;
10430;SDS011;5262;59.958;17.726;2022-11-30T09:14:25;4.87;;;4.20;;
10430;SDS011;5262;59.958;17.726;2022-11-30T09:16:52;4.57;;;3.63;;
10430;SDS011;5262;59.958;17.726;2022-11-30T09:19:18;4.90;;;3.93;;
10430;SDS011;5262;59.958;17.726;2022-11-30T09:21:44;6.20;;;3.73;;
10430;SDS011;5262;59.958;17.726;2022-11-30T09:24:09;6.70;;;4.07;;
10430;SDS011;5262;59.958;17.726;2022-11-30T09:26:35;5.83;;;3.83;;
10430;SDS011;5262;59.958;17.726;2022-11-30T09:29:01;6.23;;;3.90;;
10430;SDS011;5262;59.958;17.726;2022-11-30T09:31:27;7.30;;;3.60;;
10430;SDS011;5262;59.958;17.726;2022-11-30T09:33:56;5.30;;;3.87;;
10430;SDS011;5262;59.958;17.726;2022-11-30T09:36:22;4.77;;;3.33;;
10430;SDS011;5262;59.958;17.726;2022-11-30T09:38:53;5.10;;;3.27;;
10430;SDS011;5262;59.958;17.726;2022-11-30T09:46:28;5.10;;;3.40;;
10430;SDS011;5262;59.958;17.726;2022-11-30T09:51:50;4.63;;;3.67;;
10430;SDS011;5262;59.958;17.726;2022-11-30T09:54:52;4.43;;;3.17;;
10430;SDS011;5262;59.958;17.726;2022-11-30T09:57:22;4.40;;;3.20;;
10430;SDS011;5262;59.958;17.726;2022-11-30T10:00:20;4.00;;;2.97;;
10430;SDS011;5262;59.958;17.726;2022-11-30T10:02:50;4.00;;;3.43;;
10430;SDS011;5262;59.958;17.726;2022-11-30T10:05:21;3.60;;;3.17;;
10430;SDS011;5262;59.958;17.726;2022-11-30T10:10:54;3.27;;;2.90;;
10430;SDS011;5262;59.958;17.726;2022-11-30T10:19:18;3.93;;;3.13;;
10430;SDS011;5262;59.958;17.726;2022-11-30T10:22:01;4.03;;;2.93;;
10430;SDS011;5262;59.958;17.726;2022-11-30T10:30:21;4.07;;;2.70;;
10430;SDS011;5262;59.958;17.726;2022-11-30T10:32:53;3.50;;;3.03;;
10430;SDS011;5262;59.958;17.726;2022-11-30T10:35:23;3.07;;;2.47;;
10430;SDS011;5262;59.958;17.726;2022-11-30T10:37:57;3.00;;;2.57;;
10430;SDS011;5262;59.958;17.726;2022-11-30T10:40:31;4.07;;;2.50;;
10430;SDS011;5262;59.958;17.726;2022-11-30T10:43:14;3.30;;;2.67;;
10430;SDS011;5262;59.958;17.726;2022-11-30T10:45:48;3.23;;;2.70;;
10430;SDS011;5262;59.958;17.726;2022-11-30T10:48:36;3.57;;;3.03;;
10430;SDS011;5262;59.958;17.726;2022-11-30T10:51:07;3.93;;;2.50;;
10430;SDS011;5262;59.958;17.726;2022-11-30T10:53:35;3.07;;;2.20;;
10430;SDS011;5262;59.958;17.726;2022-11-30T11:01:37;3.40;;;3.07;;
10430;SDS011;5262;59.958;17.726;2022-11-30T11:06:33;4.03;;;2.83;;
10430;SDS011;5262;59.958;17.726;2022-11-30T11:09:21;3.47;;;2.70;;
10430;SDS011;5262;59.958;17.726;2022-11-30T11:11:56;4.43;;;2.60;;
10430;SDS011;5262;59.958;17.726;2022-11-30T11:14:27;2.90;;;2.47;;
10430;SDS011;5262;59.958;17.726;2022-11-30T11:19:24;2.90;;;2.40;;
10430;SDS011;5262;59.958;17.726;2022-11-30T11:22:03;2.87;;;2.27;;
10430;SDS011;5262;59.958;17.726;2022-11-30T11:24:35;2.60;;;2.20;;
10430;SDS011;5262;59.958;17.726;2022-11-30T11:27:01;2.63;;;2.17;;
10430;SDS011;5262;59.958;17.726;2022-11-30T11:29:30;2.43;;;2.23;;
10430;SDS011;5262;59.958;17.726;2022-11-30T11:34:42;2.97;;;2.20;;
10430;SDS011;5262;59.958;17.726;2022-11-30T11:39:54;4.70;;;2.60;;
10430;SDS011;5262;59.958;17.726;2022-11-30T11:42:35;2.40;;;2.20;;
10430;SDS011;5262;59.958;17.726;2022-11-30T11:45:15;2.63;;;2.17;;
10430;SDS011;5262;59.958;17.726;2022-11-30T11:53:56;3.33;;;2.70;;
10430;SDS011;5262;59.958;17.726;2022-11-30T11:56:09;3.13;;;2.60;;
10430;SDS011;5262;59.958;17.726;2022-11-30T11:58:54;3.70;;;2.60;;
10430;SDS011;5262;59.958;17.726;2022-11-30T12:01:36;3.23;;;2.67;;
10430;SDS011;5262;59.958;17.726;2022-11-30T12:06:53;3.47;;;2.13;;
10430;SDS011;5262;59.958;17.726;2022-11-30T12:09:29;3.47;;;2.87;;
10430;SDS011;5262;59.958;17.726;2022-11-30T12:12:01;5.27;;;3.80;;
10430;SDS011;5262;59.958;17.726;2022-11-30T12:14:27;5.63;;;3.10;;
10430;SDS011;5262;59.958;17.726;2022-11-30T12:17:17;3.30;;;2.60;;
10430;SDS011;5262;59.958;17.726;2022-11-30T12:20:11;3.63;;;2.57;;
10430;SDS011;5262;59.958;17.726;2022-11-30T12:23:00;8.57;;;3.07;;
10430;SDS011;5262;59.958;17.726;2022-11-30T12:25:53;10.80;;;2.50;;
10430;SDS011;5262;59.958;17.726;2022-11-30T12:28:26;6.97;;;2.30;;
10430;SDS011;5262;59.958;17.726;2022-11-30T12:42:14;3.43;;;2.53;;
10430;SDS011;5262;59.958;17.726;2022-11-30T12:44:59;3.30;;;2.60;;
10430;SDS011;5262;59.958;17.726;2022-11-30T12:53:12;5.93;;;4.97;;
10430;SDS011;5262;59.958;17.726;2022-11-30T12:58:42;5.97;;;5.03;;
10430;SDS011;5262;59.958;17.726;2022-11-30T13:01:30;4.83;;;4.03;;
10430;SDS011;5262;59.958;17.726;2022-11-30T13:04:26;3.43;;;3.00;;
10430;SDS011;5262;59.958;17.726;2022-11-30T13:07:39;4.83;;;2.43;;
10430;SDS011;5262;59.958;17.726;2022-11-30T13:10:05;2.40;;;2.20;;
10430;SDS011;5262;59.958;17.726;2022-11-30T13:13:00;3.00;;;2.37;;
10430;SDS011;5262;59.958;17.726;2022-11-30T13:15:29;2.80;;;2.13;;
10430;SDS011;5262;59.958;17.726;2022-11-30T13:17:58;2.93;;;2.23;;
10430;SDS011;5262;59.958;17.726;2022-11-30T13:20:36;2.40;;;2.13;;
10430;SDS011;5262;59.958;17.726;2022-11-30T13:33:46;2.87;;;2.57;;
10430;SDS011;5262;59.958;17.726;2022-11-30T13:41:39;2.77;;;2.10;;
10430;SDS011;5262;59.958;17.726;2022-11-30T13:44:19;3.50;;;2.47;;
10430;SDS011;5262;59.958;17.726;2022-11-30T13:46:49;4.63;;;2.60;;
10430;SDS011;5262;59.958;17.726;2022-11-30T13:51:51;2.50;;;2.30;;
10430;SDS011;5262;59.958;17.726;2022-11-30T13:59:49;3.33;;;2.20;;
10430;SDS011;5262;59.958;17.726;2022-11-30T14:07:42;3.00;;;2.43;;
10430;SDS011;5262;59.958;17.726;2022-11-30T14:10:30;3.93;;;2.77;;
10430;SDS011;5262;59.958;17.726;2022-11-30T14:13:03;3.13;;;2.27;;
10430;SDS011;5262;59.958;17.726;2022-11-30T14:20:34;3.10;;;2.30;;
10430;SDS011;5262;59.958;17.726;2022-11-30T14:23:12;4.30;;;2.30;;
10430;SDS011;5262;59.958;17.726;2022-11-30T14:25:47;4.10;;;2.43;;
10430;SDS011;5262;59.958;17.726;2022-11-30T14:28:19;3.37;;;2.50;;
10430;SDS011;5262;59.958;17.726;2022-11-30T14:30:48;6.03;;;2.80;;
10430;SDS011;5262;59.958;17.726;2022-11-30T14:33:16;4.83;;;2.77;;
10430;SDS011;5262;59.958;17.726;2022-11-30T14:35:47;2.80;;;2.30;;
10430;SDS011;5262;59.958;17.726;2022-11-30T14:38:26;5.57;;;2.53;;
10430;SDS011;5262;59.958;17.726;2022-11-30T14:40:56;3.23;;;2.30;;
10430;SDS011;5262;59.958;17.726;2022-11-30T14:43:23;4.47;;;2.70;;
10430;SDS011;5262;59.958;17.726;2022-11-30T14:46:02;4.23;;;2.93;;
10430;SDS011;5262;59.958;17.726;2022-11-30T14:48:30;3.33;;;2.63;;
10430;SDS011;5262;59.958;17.726;2022-11-30T14:51:00;4.90;;;2.73;;
10430;SDS011;5262;59.958;17.726;2022-11-30T14:56:20;4.27;;;2.47;;
10430;SDS011;5262;59.958;17.726;2022-11-30T14:58:51;3.57;;;2.40;;
10430;SDS011;5262;59.958;17.726;2022-11-30T15:01:26;6.47;;;2.70;;
10430;SDS011;5262;59.958;17.726;2022-11-30T15:03:56;5.47;;;2.80;;
10430;SDS011;5262;59.958;17.726;2022-11-30T15:06:28;4.40;;;2.70;;
10430;SDS011;5262;59.958;17.726;2022-11-30T15:08:57;4.40;;;3.10;;
10430;SDS011;5262;59.958;17.726;2022-11-30T15:11:24;3.83;;;2.97;;
10430;SDS011;5262;59.958;17.726;2022-11-30T15:13:51;3.53;;;2.97;;
10430;SDS011;5262;59.958;17.726;2022-11-30T15:18:49;3.90;;;3.00;;
10430;SDS011;5262;59.958;17.726;2022-11-30T15:21:20;4.27;;;2.73;;
10430;SDS011;5262;59.958;17.726;2022-11-30T15:23:48;3.77;;;2.80;;
10430;SDS011;5262;59.958;17.726;2022-11-30T15:26:25;3.10;;;2.80;;
10430;SDS011;5262;59.958;17.726;2022-11-30T15:28:57;4.67;;;3.10;;
10430;SDS011;5262;59.958;17.726;2022-11-30T15:31:31;4.03;;;3.10;;
10430;SDS011;5262;59.958;17.726;2022-11-30T15:34:02;4.10;;;2.93;;
10430;SDS011;5262;59.958;17.726;2022-11-30T15:36:35;3.77;;;3.17;;
10430;SDS011;5262;59.958;17.726;2022-11-30T15:39:04;3.47;;;2.87;;
10430;SDS011;5262;59.958;17.726;2022-11-30T15:41:32;4.17;;;3.33;;
10430;SDS011;5262;59.958;17.726;2022-11-30T15:43:59;5.30;;;3.50;;
10430;SDS011;5262;59.958;17.726;2022-11-30T15:46:29;4.63;;;3.27;;
10430;SDS011;5262;59.958;17.726;2022-11-30T15:49:33;4.50;;;3.37;;
10430;SDS011;5262;59.958;17.726;2022-11-30T15:54:47;4.53;;;3.33;;
10430;SDS011;5262;59.958;17.726;2022-11-30T15:57:19;4.03;;;3.30;;
10430;SDS011;5262;59.958;17.726;2022-11-30T16:00:07;5.07;;;3.67;;
10430;SDS011;5262;59.958;17.726;2022-11-30T16:03:09;4.93;;;3.77;;
10430;SDS011;5262;59.958;17.726;2022-11-30T16:05:36;5.53;;;3.50;;
10430;SDS011;5262;59.958;17.726;2022-11-30T16:08:12;5.27;;;3.30;;
10430;SDS011;5262;59.958;17.726;2022-11-30T16:10:39;5.53;;;3.50;;
10430;SDS011;5262;59.958;17.726;2022-11-30T16:13:10;5.10;;;3.70;;
10430;SDS011;5262;59.958;17.726;2022-11-30T16:15:37;5.13;;;3.77;;
10430;SDS011;5262;59.958;17.726;2022-11-30T16:18:23;5.00;;;3.63;;
10430;SDS011;5262;59.958;17.726;2022-11-30T16:20:57;4.67;;;3.43;;
10430;SDS011;5262;59.958;17.726;2022-11-30T16:23:24;5.87;;;4.03;;
10430;SDS011;5262;59.958;17.726;2022-11-30T16:25:51;4.03;;;2.97;;
10430;SDS011;5262;59.958;17.726;2022-11-30T16:28:18;6.10;;;3.40;;
10430;SDS011;5262;59.958;17.726;2022-11-30T16:30:44;4.63;;;3.47;;
10430;SDS011;5262;59.958;17.726;2022-11-30T16:33:14;4.87;;;3.37;;
10430;SDS011;5262;59.958;17.726;2022-11-30T16:38:21;5.50;;;4.00;;
10430;SDS011;5262;59.958;17.726;2022-11-30T16:40:47;4.60;;;3.40;;
10430;SDS011;5262;59.958;17.726;2022-11-30T16:43:13;5.13;;;3.53;;
10430;SDS011;5262;59.958;17.726;2022-11-30T16:45:40;4.17;;;3.53;;
10430;SDS011;5262;59.958;17.726;2022-11-30T16:48:07;5.87;;;3.83;;
10430;SDS011;5262;59.958;17.726;2022-11-30T16:50:34;4.90;;;3.43;;
10430;SDS011;5262;59.958;17.726;2022-11-30T16:53:01;6.30;;;4.03;;
10430;SDS011;5262;59.958;17.726;2022-11-30T16:55:28;4.70;;;3.63;;
10430;SDS011;5262;59.958;17.726;2022-11-30T16:57:56;3.93;;;3.10;;
10430;SDS011;5262;59.958;17.726;2022-11-30T17:00:22;3.70;;;3.10;;
10430;SDS011;5262;59.958;17.726;2022-11-30T17:03:15;5.67;;;3.23;;
10430;SDS011;5262;59.958;17.726;2022-11-30T17:05:45;6.10;;;3.93;;
10430;SDS011;5262;59.958;17.726;2022-11-30T17:08:11;6.50;;;3.60;;
10430;SDS011;5262;59.958;17.726;2022-11-30T17:10:37;5.43;;;4.13;;
10430;SDS011;5262;59.958;17.726;2022-11-30T17:13:03;6.87;;;4.20;;
10430;SDS011;5262;59.958;17.726;2022-11-30T17:15:29;5.53;;;3.97;;
10430;SDS011;5262;59.958;17.726;2022-11-30T17:17:55;4.60;;;3.40;;